createdAt,value
2023-02-09T00:01:31.728Z,73.63
2023-02-09T00:04:04.143Z,73.64
2023-02-09T00:06:30.522Z,74.07
2023-02-09T00:08:58.298Z,73.91
2023-02-09T00:11:30.568Z,74.47
2023-02-09T00:13:57.733Z,74.09
2023-02-09T00:16:26.323Z,73.54
2023-02-09T00:18:52.956Z,73.90
2023-02-09T00:21:19.321Z,74.15
2023-02-09T00:23:45.633Z,74.03
2023-02-09T00:26:13.592Z,73.80
2023-02-09T00:28:40.049Z,73.82
2023-02-09T00:31:12.024Z,73.65
2023-02-09T00:33:46.377Z,73.60
2023-02-09T00:36:21.337Z,73.69
2023-02-09T00:38:48.200Z,74.19
2023-02-09T00:41:15.628Z,74.39
2023-02-09T00:43:45.170Z,74.31
2023-02-09T00:46:11.952Z,74.43
2023-02-09T00:48:38.337Z,74.01
2023-02-09T00:51:04.895Z,74.39
2023-02-09T00:53:31.212Z,74.92
2023-02-09T00:55:57.506Z,74.75
2023-02-09T00:58:23.821Z,74.92
2023-02-09T01:00:50.256Z,75.42
2023-02-09T01:03:16.783Z,75.75
2023-02-09T01:05:43.137Z,75.77
2023-02-09T01:08:09.852Z,75.97
2023-02-09T01:10:38.276Z,76.29
2023-02-09T01:13:05.458Z,76.27
2023-02-09T01:15:32.057Z,75.95
2023-02-09T01:17:59.039Z,76.07
2023-02-09T01:20:25.545Z,76.35
2023-02-09T01:22:51.836Z,76.67
2023-02-09T01:25:18.232Z,76.68
2023-02-09T01:27:44.522Z,76.78
2023-02-09T01:30:11.407Z,76.94
2023-02-09T01:32:37.798Z,76.97
2023-02-09T01:35:04.675Z,77.11
2023-02-09T01:37:34.031Z,77.33
2023-02-09T01:40:00.446Z,77.40
2023-02-09T01:42:27.719Z,77.35
2023-02-09T01:45:34.008Z,78.01
2023-02-09T01:48:02.510Z,78.00
2023-02-09T01:50:33.558Z,78.68
2023-02-09T01:53:01.307Z,78.33
2023-02-09T01:55:31.486Z,78.29
2023-02-09T01:58:05.878Z,77.88
2023-02-09T02:00:32.569Z,78.35
2023-02-09T02:03:05.844Z,78.31
2023-02-09T02:05:36.076Z,78.24
2023-02-09T02:08:19.095Z,78.33
2023-02-09T02:10:45.891Z,78.52
2023-02-09T02:13:12.480Z,79.07
2023-02-09T02:15:59.688Z,78.73
2023-02-09T02:18:52.349Z,79.05
2023-02-09T02:22:06.510Z,78.70
2023-02-09T02:24:44.924Z,78.00
2023-02-09T02:27:39.184Z,78.05
2023-02-09T02:30:37.469Z,78.40
2023-02-09T02:33:33.646Z,78.92
2023-02-09T02:36:17.190Z,79.13
2023-02-09T02:38:54.429Z,79.30
2023-02-09T02:41:37.257Z,79.40
2023-02-09T02:44:13.423Z,79.34
2023-02-09T02:46:44.933Z,79.89
2023-02-09T02:49:33.565Z,79.41
2023-02-09T02:52:05.155Z,79.31
2023-02-09T02:54:36.096Z,79.76
2023-02-09T02:57:09.043Z,79.76
2023-02-09T02:59:43.732Z,79.48
2023-02-09T03:02:13.646Z,79.67
2023-02-09T03:04:42.550Z,79.23
2023-02-09T03:07:09.313Z,79.15
2023-02-09T03:09:35.618Z,79.24
2023-02-09T03:12:41.612Z,79.48
2023-02-09T03:15:24.829Z,79.74
2023-02-09T03:18:10.767Z,79.54
2023-02-09T03:20:54.704Z,79.60
2023-02-09T03:23:37.871Z,79.72
2023-02-09T03:26:12.532Z,79.95
2023-02-09T03:28:42.574Z,80.04
2023-02-09T03:31:09.226Z,79.75
2023-02-09T03:33:38.314Z,79.72
2023-02-09T03:36:09.693Z,80.07
2023-02-09T03:38:36.010Z,79.74
2023-02-09T03:41:02.321Z,80.10
2023-02-09T03:43:28.666Z,79.88
2023-02-09T03:45:54.980Z,80.03
2023-02-09T03:48:21.304Z,80.24
2023-02-09T03:50:47.803Z,80.31
2023-02-09T03:53:14.269Z,80.25
2023-02-09T03:55:41.775Z,80.47
2023-02-09T03:58:08.100Z,80.41
2023-02-09T04:00:34.403Z,80.33
2023-02-09T04:03:00.735Z,80.09
2023-02-09T04:05:27.045Z,80.23
2023-02-09T04:07:53.357Z,80.38
2023-02-09T04:10:19.781Z,80.20
2023-02-09T04:12:46.093Z,80.17
2023-02-09T04:15:12.436Z,80.15
2023-02-09T04:17:38.805Z,80.32
2023-02-09T04:20:05.567Z,80.09
2023-02-09T04:22:31.924Z,79.72
2023-02-09T04:24:58.254Z,79.85
2023-02-09T04:27:24.589Z,79.30
2023-02-09T04:29:50.924Z,79.02
2023-02-09T04:32:17.233Z,79.34
2023-02-09T04:34:43.562Z,79.41
2023-02-09T04:37:09.925Z,79.89
2023-02-09T04:39:36.232Z,80.05
2023-02-09T04:42:02.584Z,80.03
2023-02-09T04:44:28.982Z,80.05
2023-02-09T04:46:55.298Z,80.18
2023-02-09T04:49:21.637Z,79.95
2023-02-09T04:51:47.928Z,79.56
2023-02-09T04:54:14.249Z,79.40
2023-02-09T04:56:40.551Z,79.79
2023-02-09T04:59:06.878Z,79.30
2023-02-09T05:01:33.286Z,79.52
2023-02-09T05:03:59.639Z,79.86
2023-02-09T05:06:26.101Z,80.04
2023-02-09T05:08:52.430Z,80.18
2023-02-09T05:11:18.791Z,80.38
2023-02-09T05:13:45.313Z,80.71
2023-02-09T05:16:16.593Z,80.79
2023-02-09T05:18:43.261Z,81.11
2023-02-09T05:21:09.629Z,81.33
2023-02-09T05:23:35.946Z,81.25
2023-02-09T05:26:02.294Z,81.03
2023-02-09T05:28:28.670Z,80.87
2023-02-09T05:30:55.006Z,80.87
2023-02-09T05:33:23.001Z,80.78
2023-02-09T05:35:51.003Z,80.17
2023-02-09T05:38:18.172Z,80.12
2023-02-09T05:40:45.352Z,79.87
2023-02-09T05:43:11.938Z,79.67
2023-02-09T05:45:38.378Z,79.01
2023-02-09T05:48:04.850Z,78.46
2023-02-09T05:50:31.216Z,77.95
2023-02-09T05:53:00.335Z,78.18
2023-02-09T05:55:27.344Z,78.16
2023-02-09T05:57:53.641Z,77.71
2023-02-09T06:00:20.133Z,77.85
2023-02-09T06:02:46.471Z,77.99
2023-02-09T06:05:12.821Z,78.01
2023-02-09T06:07:39.139Z,78.12
2023-02-09T06:10:05.681Z,78.47
2023-02-09T06:12:31.998Z,78.86
2023-02-09T06:14:58.310Z,78.99
2023-02-09T06:17:24.672Z,78.87
2023-02-09T06:19:50.981Z,78.30
2023-02-09T06:22:17.326Z,78.16
2023-02-09T06:24:43.663Z,77.44
2023-02-09T06:27:11.717Z,77.21
2023-02-09T06:29:38.016Z,78.25
2023-02-09T06:32:04.626Z,78.68
2023-02-09T06:34:31.012Z,79.25
2023-02-09T06:36:57.314Z,79.93
2023-02-09T06:39:23.659Z,80.14
2023-02-09T06:41:49.979Z,79.66
2023-02-09T06:44:16.287Z,79.47
2023-02-09T06:46:42.672Z,79.51
2023-02-09T06:49:09.049Z,79.08
2023-02-09T06:51:35.620Z,78.98
2023-02-09T06:54:02.130Z,79.01
2023-02-09T06:56:28.421Z,78.27
2023-02-09T06:58:55.230Z,77.90
2023-02-09T07:01:21.728Z,77.80
2023-02-09T07:03:48.096Z,78.45
2023-02-09T07:06:19.384Z,79.63
2023-02-09T07:08:46.150Z,79.83
2023-02-09T07:11:15.395Z,79.74
2023-02-09T07:13:42.795Z,80.02
2023-02-09T07:16:10.828Z,79.69
2023-02-09T07:18:39.478Z,79.06
2023-02-09T07:21:08.303Z,78.76
2023-02-09T07:23:36.475Z,78.10
2023-02-09T07:26:16.958Z,77.68
2023-02-09T07:28:44.108Z,77.50
2023-02-09T07:31:12.682Z,77.19
2023-02-09T07:33:39.424Z,77.66
2023-02-09T07:36:07.802Z,77.66
2023-02-09T07:38:34.930Z,76.38
2023-02-09T07:41:03.623Z,75.74
2023-02-09T07:43:30.008Z,75.25
2023-02-09T07:46:01.033Z,75.35
2023-02-09T07:48:27.786Z,75.73
2023-02-09T07:50:54.206Z,75.72
2023-02-09T07:53:20.514Z,75.14
2023-02-09T07:55:47.049Z,74.47
2023-02-09T07:58:13.605Z,74.23
2023-02-09T08:00:39.989Z,73.91
2023-02-09T08:03:06.343Z,73.53
2023-02-09T08:05:48.321Z,72.22
2023-02-09T08:08:14.851Z,71.89
2023-02-09T08:10:42.084Z,71.92
2023-02-09T08:13:09.051Z,71.96
2023-02-09T08:15:38.124Z,71.77
2023-02-09T08:18:12.521Z,71.56
2023-02-09T08:20:39.532Z,71.29
2023-02-09T08:23:12.309Z,70.79
2023-02-09T08:25:39.559Z,69.67
2023-02-09T08:28:06.734Z,69.49
2023-02-09T08:30:34.334Z,68.81
2023-02-09T08:33:01.274Z,68.43
2023-02-09T08:35:30.324Z,68.51
2023-02-09T08:37:59.964Z,68.18
2023-02-09T08:40:26.310Z,67.92
2023-02-09T08:42:53.539Z,67.62
2023-02-09T08:45:19.912Z,66.83
2023-02-09T08:47:46.258Z,66.73
2023-02-09T08:50:12.601Z,66.44
2023-02-09T08:52:38.961Z,66.24
2023-02-09T08:55:05.670Z,66.37
2023-02-09T08:57:43.035Z,66.40
2023-02-09T09:00:10.480Z,65.75
2023-02-09T09:02:36.804Z,65.88
2023-02-09T09:05:03.225Z,66.84
2023-02-09T09:07:29.564Z,66.90
2023-02-09T09:09:55.887Z,66.69
2023-02-09T09:12:22.202Z,65.95
2023-02-09T09:14:48.533Z,65.78
2023-02-09T09:17:14.856Z,65.26
2023-02-09T09:19:41.218Z,64.22
2023-02-09T09:22:07.516Z,63.65
2023-02-09T09:24:33.845Z,62.95
2023-02-09T09:27:00.152Z,61.90
2023-02-09T09:29:27.087Z,62.04
2023-02-09T09:31:53.416Z,61.51
2023-02-09T09:34:19.822Z,60.50
2023-02-09T09:36:46.160Z,60.34
2023-02-09T09:39:12.488Z,60.26
2023-02-09T09:41:38.827Z,59.80
2023-02-09T09:44:22.360Z,59.23
2023-02-09T09:46:51.525Z,59.38
2023-02-09T09:49:25.577Z,58.61
2023-02-09T09:51:56.714Z,58.17
2023-02-09T09:54:29.925Z,58.53
2023-02-09T09:56:56.566Z,58.69
2023-02-09T09:59:26.696Z,57.51
2023-02-09T10:01:55.072Z,57.03
2023-02-09T10:04:21.582Z,56.76
2023-02-09T10:06:57.134Z,56.14
2023-02-09T10:09:28.365Z,55.96
2023-02-09T10:12:14.035Z,56.67
2023-02-09T10:14:40.382Z,56.58
2023-02-09T10:17:06.773Z,56.96
2023-02-09T10:19:33.120Z,56.38
2023-02-09T10:21:59.644Z,55.79
2023-02-09T10:24:31.427Z,55.76
2023-02-09T10:27:14.731Z,54.83
2023-02-09T10:29:41.623Z,55.00
2023-02-09T10:32:16.501Z,54.69
2023-02-09T10:34:44.867Z,55.81
2023-02-09T10:37:17.030Z,56.32
2023-02-09T10:39:44.782Z,55.33
2023-02-09T10:42:25.332Z,55.21
2023-02-09T10:44:55.262Z,55.13
2023-02-09T10:47:21.503Z,55.44
2023-02-09T10:49:59.797Z,54.95
2023-02-09T10:52:32.729Z,54.62
2023-02-09T10:55:06.866Z,54.59
2023-02-09T10:57:38.570Z,54.67
2023-02-09T11:00:17.069Z,55.00
2023-02-09T11:02:55.521Z,53.86
2023-02-09T11:05:21.921Z,53.52
2023-02-09T11:07:53.340Z,52.69
2023-02-09T11:10:20.020Z,52.55
2023-02-09T11:12:46.635Z,52.88
2023-02-09T11:15:23.504Z,53.25
2023-02-09T11:18:10.757Z,53.15
2023-02-09T11:20:47.245Z,53.13
2023-02-09T11:23:37.223Z,53.08
2023-02-09T11:26:42.628Z,52.34
2023-02-09T11:29:27.277Z,52.46
2023-02-09T11:31:58.438Z,51.86
2023-02-09T11:34:27.717Z,52.85
2023-02-09T11:36:57.030Z,53.48
2023-02-09T11:39:43.085Z,53.20
2023-02-09T11:42:17.955Z,53.30
2023-02-09T11:44:46.958Z,53.71
2023-02-09T11:47:25.849Z,53.08
2023-02-09T11:49:53.656Z,52.34
2023-02-09T11:52:33.840Z,52.41
2023-02-09T11:55:06.083Z,52.73
2023-02-09T11:57:42.786Z,53.06
2023-02-09T12:00:18.003Z,52.10
2023-02-09T12:03:03.909Z,52.34
2023-02-09T12:05:30.452Z,51.48
2023-02-09T12:08:02.676Z,52.12
2023-02-09T12:11:07.564Z,52.40
2023-02-09T12:14:06.256Z,51.34
2023-02-09T12:16:37.715Z,52.29
2023-02-09T12:19:04.256Z,51.46
2023-02-09T12:21:35.018Z,51.52
2023-02-09T12:24:02.096Z,51.42
2023-02-09T12:26:43.678Z,51.39
2023-02-09T12:29:35.049Z,52.25
2023-02-09T12:32:04.498Z,52.10
2023-02-09T12:34:45.748Z,52.92
2023-02-09T12:37:18.930Z,52.44
2023-02-09T12:40:08.235Z,51.71
2023-02-09T12:42:45.966Z,52.24
2023-02-09T12:45:34.808Z,51.60
2023-02-09T12:48:12.432Z,52.64
2023-02-09T12:50:53.775Z,52.98
2023-02-09T12:53:22.908Z,52.00
2023-02-09T12:56:03.736Z,53.01
2023-02-09T12:58:43.424Z,50.67
2023-02-09T13:01:11.389Z,51.18
2023-02-09T13:03:44.787Z,51.92
2023-02-09T13:06:30.456Z,51.52
2023-02-09T13:08:59.444Z,52.58
2023-02-09T13:11:30.976Z,51.21
2023-02-09T13:14:01.384Z,50.43
2023-02-09T13:16:42.804Z,52.08
2023-02-09T13:19:24.822Z,52.26
2023-02-09T13:22:01.056Z,52.38
2023-02-09T13:24:44.033Z,51.53
2023-02-09T13:27:22.585Z,51.66
2023-02-09T13:29:51.046Z,52.73
2023-02-09T13:32:17.287Z,51.91
2023-02-09T13:34:58.689Z,52.78
2023-02-09T13:37:47.748Z,52.44
2023-02-09T13:40:18.654Z,52.20
2023-02-09T13:43:10.808Z,52.35
2023-02-09T13:45:46.569Z,52.95
2023-02-09T13:48:21.145Z,52.69
2023-02-09T13:50:47.969Z,52.85
2023-02-09T13:53:17.683Z,53.00
2023-02-09T13:55:47.622Z,52.35
2023-02-09T13:58:29.971Z,51.94
2023-02-09T14:01:02.262Z,52.65
2023-02-09T14:03:58.850Z,51.80
2023-02-09T14:06:40.241Z,52.32
2023-02-09T14:09:15.541Z,52.36
2023-02-09T14:11:49.817Z,52.71
2023-02-09T14:14:26.301Z,52.33
2023-02-09T14:17:25.143Z,52.97
2023-02-09T14:19:53.269Z,53.61
2023-02-09T14:22:39.591Z,53.75
2023-02-09T14:25:14.675Z,53.17
2023-02-09T14:27:46.751Z,53.81
2023-02-09T14:30:16.034Z,54.02
2023-02-09T14:32:42.525Z,54.61
2023-02-09T14:35:30.166Z,54.69
2023-02-09T14:37:58.877Z,54.19
2023-02-09T14:40:28.029Z,53.94
2023-02-09T14:43:03.432Z,54.65
2023-02-09T14:45:45.437Z,53.63
2023-02-09T14:48:20.465Z,53.96
2023-02-09T14:50:53.049Z,53.73
2023-02-09T14:53:21.835Z,53.68
2023-02-09T14:55:48.513Z,53.61
2023-02-09T14:58:29.719Z,53.91
2023-02-09T15:01:00.446Z,54.66
2023-02-09T15:03:28.282Z,54.90
2023-02-09T15:06:01.479Z,54.95
2023-02-09T15:08:31.199Z,54.87
2023-02-09T15:11:00.802Z,54.98
2023-02-09T15:13:30.938Z,54.60
2023-02-09T15:15:59.110Z,54.38
2023-02-09T15:18:27.028Z,54.59
2023-02-09T15:20:53.426Z,54.99
2023-02-09T15:23:20.137Z,55.16
2023-02-09T15:25:47.709Z,56.20
2023-02-09T15:28:25.682Z,55.31
2023-02-09T15:30:52.329Z,55.04
2023-02-09T15:33:18.644Z,55.57
2023-02-09T15:35:45.276Z,55.80
2023-02-09T15:38:14.660Z,56.16
2023-02-09T15:40:50.170Z,56.95
2023-02-09T15:43:19.098Z,56.38
2023-02-09T15:45:45.403Z,56.64
2023-02-09T15:48:12.869Z,56.37
2023-02-09T15:50:43.693Z,56.32
2023-02-09T15:53:13.660Z,56.92
2023-02-09T15:55:41.799Z,57.55
2023-02-09T15:58:28.301Z,58.15
2023-02-09T16:00:54.885Z,58.58
2023-02-09T16:03:21.873Z,58.80
2023-02-09T16:05:52.201Z,59.18
2023-02-09T16:08:24.754Z,59.88
2023-02-09T16:10:51.928Z,59.69
2023-02-09T16:13:19.194Z,59.85
2023-02-09T16:15:47.273Z,60.23
2023-02-09T16:18:14.414Z,60.23
2023-02-09T16:20:44.532Z,60.52
2023-02-09T16:23:20.536Z,60.71
2023-02-09T16:25:51.863Z,60.89
2023-02-09T16:28:19.838Z,61.30
2023-02-09T16:30:54.594Z,61.44
2023-02-09T16:33:22.516Z,61.75
2023-02-09T16:35:57.312Z,62.26
2023-02-09T16:38:24.494Z,62.41
2023-02-09T16:40:51.032Z,63.01
2023-02-09T16:43:18.132Z,63.01
2023-02-09T16:46:00.854Z,63.09
2023-02-09T16:48:31.324Z,63.47
2023-02-09T16:50:58.356Z,63.58
2023-02-09T16:53:36.567Z,63.58
2023-02-09T16:56:06.109Z,63.85
2023-02-09T16:58:32.666Z,64.00
2023-02-09T17:00:59.194Z,64.19
2023-02-09T17:03:35.265Z,64.52
2023-02-09T17:06:02.786Z,64.91
2023-02-09T17:08:32.062Z,65.15
2023-02-09T17:10:59.604Z,65.34
2023-02-09T17:13:26.332Z,65.98
2023-02-09T17:15:56.081Z,67.13
2023-02-09T17:18:25.341Z,67.23
2023-02-09T17:20:55.090Z,67.03
2023-02-09T17:23:23.656Z,67.25
2023-02-09T17:25:50.286Z,68.16
2023-02-09T17:28:17.390Z,68.43
2023-02-09T17:30:44.727Z,68.20
2023-02-09T17:33:19.272Z,68.22
2023-02-09T17:36:17.647Z,68.51
2023-02-09T17:38:35.103Z,68.47
2023-02-09T17:41:05.692Z,68.29
2023-02-09T17:43:32.113Z,68.43
2023-02-09T17:45:58.509Z,68.67
2023-02-09T17:48:24.822Z,68.72
2023-02-09T17:50:52.953Z,68.36
2023-02-09T17:53:31.935Z,67.85
2023-02-09T17:55:58.387Z,66.64
2023-02-09T17:58:25.212Z,66.86
2023-02-09T18:00:52.018Z,66.54
2023-02-09T18:03:24.864Z,65.70
2023-02-09T18:05:56.154Z,65.66
2023-02-09T18:08:22.499Z,64.83
2023-02-09T18:10:49.373Z,64.03
2023-02-09T18:13:20.194Z,62.91
2023-02-09T18:15:48.379Z,62.38
2023-02-09T18:18:15.242Z,61.94
2023-02-09T18:20:41.713Z,61.31
2023-02-09T18:23:15.790Z,60.90
2023-02-09T18:25:42.652Z,60.28
2023-02-09T18:28:09.122Z,60.75
2023-02-09T18:30:39.521Z,60.92
2023-02-09T18:33:07.188Z,60.21
2023-02-09T18:35:36.883Z,59.60
2023-02-09T18:38:05.157Z,59.61
2023-02-09T18:40:31.619Z,60.00
2023-02-09T18:42:59.502Z,60.11
2023-02-09T18:45:26.596Z,58.50
2023-02-09T18:47:53.015Z,59.01
2023-02-09T18:50:29.715Z,59.22
2023-02-09T18:52:58.822Z,59.46
2023-02-09T18:55:26.816Z,59.61
2023-02-09T18:57:53.222Z,59.69
2023-02-09T19:00:20.259Z,59.73
2023-02-09T19:02:48.091Z,59.23
2023-02-09T19:05:16.680Z,58.58
2023-02-09T19:07:44.157Z,58.61
2023-02-09T19:10:13.847Z,58.70
2023-02-09T19:12:40.228Z,58.76
2023-02-09T19:15:07.020Z,59.11
2023-02-09T19:17:33.468Z,58.93
2023-02-09T19:20:00.410Z,59.04
2023-02-09T19:22:26.940Z,59.06
2023-02-09T19:24:55.112Z,59.13
2023-02-09T19:27:21.528Z,58.68
2023-02-09T19:29:47.945Z,58.08
2023-02-09T19:32:15.171Z,58.49
2023-02-09T19:34:42.083Z,58.48
2023-02-09T19:37:10.234Z,59.02
2023-02-09T19:39:36.647Z,59.92
2023-02-09T19:42:02.965Z,59.07
2023-02-09T19:44:29.252Z,60.13
2023-02-09T19:46:55.587Z,59.43
2023-02-09T19:49:21.933Z,59.95
2023-02-09T19:51:49.025Z,60.47
2023-02-09T19:54:15.512Z,60.39
2023-02-09T19:56:42.331Z,60.59
2023-02-09T19:59:08.763Z,61.07
2023-02-09T20:01:35.097Z,61.24
2023-02-09T20:04:01.476Z,61.73
2023-02-09T20:06:30.024Z,63.59
2023-02-09T20:08:58.795Z,66.28
2023-02-09T20:11:25.297Z,67.08
2023-02-09T20:13:53.000Z,67.35
2023-02-09T20:16:22.835Z,67.98
2023-02-09T20:18:49.388Z,68.93
2023-02-09T20:21:17.324Z,69.59
2023-02-09T20:23:45.775Z,70.04
2023-02-09T20:26:20.314Z,71.50
2023-02-09T20:28:46.806Z,72.03
2023-02-09T20:31:19.191Z,72.57
2023-02-09T20:33:45.553Z,72.84
2023-02-09T20:36:12.191Z,73.21
2023-02-09T20:38:38.507Z,73.17
2023-02-09T20:41:13.975Z,73.72
2023-02-09T20:43:40.760Z,73.50
2023-02-09T20:46:07.584Z,73.77
2023-02-09T20:48:34.002Z,74.05
2023-02-09T20:51:00.390Z,73.87
2023-02-09T20:53:26.926Z,74.07
2023-02-09T20:55:53.269Z,74.00
2023-02-09T20:58:19.649Z,74.83
2023-02-09T21:00:46.155Z,74.73
2023-02-09T21:03:12.890Z,74.77
2023-02-09T21:05:39.258Z,74.89
2023-02-09T21:08:05.583Z,74.65
2023-02-09T21:10:32.115Z,74.79
2023-02-09T21:12:58.427Z,74.59
2023-02-09T21:15:24.754Z,75.00
2023-02-09T21:17:51.069Z,75.35
2023-02-09T21:20:17.698Z,75.40
2023-02-09T21:22:44.205Z,74.84
2023-02-09T21:25:10.528Z,74.63
2023-02-09T21:27:36.880Z,74.94
2023-02-09T21:30:04.482Z,75.33
2023-02-09T21:32:30.814Z,75.13
2023-02-09T21:34:57.101Z,74.67
2023-02-09T21:37:23.432Z,74.66
2023-02-09T21:39:49.768Z,74.59
2023-02-09T21:42:16.063Z,74.83
2023-02-09T21:44:42.406Z,75.13
2023-02-09T21:47:08.973Z,74.63
2023-02-09T21:49:35.280Z,74.69
2023-02-09T21:52:01.597Z,75.12
2023-02-09T21:54:28.955Z,75.42
2023-02-09T21:56:55.354Z,75.67
2023-02-09T21:59:21.641Z,75.52
2023-02-09T22:01:48.062Z,75.33
2023-02-09T22:04:14.419Z,75.15
2023-02-09T22:06:40.757Z,75.55
2023-02-09T22:09:07.620Z,74.65
2023-02-09T22:11:34.179Z,74.86
2023-02-09T22:14:00.618Z,75.28
2023-02-09T22:16:26.999Z,75.28
2023-02-09T22:18:53.962Z,75.47
2023-02-09T22:21:20.393Z,75.63
2023-02-09T22:23:47.089Z,75.57
2023-02-09T22:26:14.169Z,76.00
2023-02-09T22:28:41.372Z,75.89
2023-02-09T22:31:10.828Z,75.42
2023-02-09T22:33:37.254Z,75.33
2023-02-09T22:36:08.368Z,75.52
2023-02-09T22:38:35.956Z,75.86
2023-02-09T22:41:06.912Z,75.85
2023-02-09T22:43:34.109Z,76.00
2023-02-09T22:46:00.447Z,76.40
2023-02-09T22:48:26.842Z,76.71
2023-02-09T22:50:53.177Z,75.86
2023-02-09T22:53:19.477Z,76.28
2023-02-09T22:55:46.211Z,76.07
2023-02-09T22:58:12.714Z,76.75
2023-02-09T23:00:39.025Z,76.95
2023-02-09T23:03:05.331Z,76.79
2023-02-09T23:05:31.646Z,76.92
2023-02-09T23:07:57.946Z,76.50
2023-02-09T23:10:24.264Z,76.92
2023-02-09T23:12:50.558Z,77.25
2023-02-09T23:15:16.987Z,77.33
2023-02-09T23:17:43.276Z,77.58
2023-02-09T23:20:09.940Z,77.44
2023-02-09T23:22:36.230Z,77.40
2023-02-09T23:25:02.550Z,77.35
2023-02-09T23:27:28.848Z,77.50
2023-02-09T23:29:55.234Z,77.46
2023-02-09T23:32:21.531Z,77.75
2023-02-09T23:34:47.912Z,78.17
2023-02-09T23:37:19.191Z,78.40
2023-02-09T23:39:55.016Z,78.38
2023-02-09T23:42:21.871Z,78.74
2023-02-09T23:44:48.178Z,78.79
2023-02-09T23:47:14.517Z,78.51
2023-02-09T23:49:40.861Z,78.03
2023-02-09T23:52:07.178Z,78.02
2023-02-09T23:54:33.493Z,78.35
2023-02-09T23:56:59.834Z,78.26
2023-02-09T23:59:26.149Z,78.11
